Time;durP1;ratioP1;P1;durP2;ratioP2;P2;SDS_P1;SDS_P2;PMS_P1;PMS_P2;Temp;Humidity;BMP_temperature;BMP_pressure;BME280_temperature;BME280_humidity;BME280_pressure;Samples;Min_cycle;Max_cycle;Signal;HPM_P1;HPM_P2
2021/11/11 00:00:30;;;;;;;3.83;1.40;;;3.70;99.10;;;;;;5018693;28;20583;-81
2021/11/11 00:02:57;;;;;;;7.13;3.35;;;3.70;99.10;;;;;;5020097;28;20213;-81
2021/11/11 00:05:24;;;;;;;3.00;2.15;;;3.60;99.10;;;;;;5019002;28;20167;-81
2021/11/11 00:07:50;;;;;;;6.65;2.70;;;3.60;99.10;;;;;;5018869;28;20209;-81
2021/11/11 00:10:18;;;;;;;1.80;1.70;;;3.60;99.10;;;;;;5018780;28;20171;-81
2021/11/11 00:12:48;;;;;;;9.88;2.10;;;3.60;99.10;;;;;;5019459;28;20175;-81
2021/11/11 00:15:16;;;;;;;1.42;1.30;;;3.50;99.10;;;;;;5018345;28;20587;-81
2021/11/11 00:17:43;;;;;;;2.70;2.55;;;3.60;99.10;;;;;;5019721;28;20216;-81
2021/11/11 00:20:10;;;;;;;2.83;2.22;;;3.50;99.10;;;;;;5020669;28;20178;-81
2021/11/11 00:22:38;;;;;;;2.92;2.35;;;3.50;99.10;;;;;;5023330;28;20210;-82
2021/11/11 00:25:05;;;;;;;4.70;2.47;;;3.50;99.10;;;;;;5022494;28;20170;-81
2021/11/11 00:27:31;;;;;;;1.95;1.30;;;3.50;99.10;;;;;;5021429;28;20199;-81
2021/11/11 00:29:57;;;;;;;1.60;1.13;;;3.50;99.10;;;;;;5022284;28;20174;-81
2021/11/11 00:32:23;;;;;;;6.20;1.90;;;3.40;99.10;;;;;;5023765;28;20445;-81
2021/11/11 00:34:52;;;;;;;14.85;2.00;;;3.40;99.10;;;;;;5022656;28;20444;-81
2021/11/11 00:37:19;;;;;;;5.18;2.95;;;3.40;99.10;;;;;;5022311;28;20179;-81
2021/11/11 00:39:45;;;;;;;4.20;1.88;;;3.40;99.10;;;;;;5022863;28;20602;-81
2021/11/11 00:42:11;;;;;;;3.13;2.87;;;3.40;99.10;;;;;;5023661;28;20195;-81
2021/11/11 00:44:37;;;;;;;6.03;1.97;;;3.40;99.10;;;;;;5022702;28;20413;-81
2021/11/11 00:47:03;;;;;;;5.47;1.60;;;3.40;99.10;;;;;;5023052;28;20464;-81
2021/11/11 00:49:29;;;;;;;2.75;1.55;;;3.40;99.10;;;;;;5023025;28;20195;-81
2021/11/11 00:51:55;;;;;;;9.43;2.50;;;3.40;99.10;;;;;;5022806;28;20213;-81
2021/11/11 00:54:21;;;;;;;2.87;1.30;;;3.30;99.10;;;;;;5022756;28;20413;-81
2021/11/11 00:56:48;;;;;;;1.85;1.75;;;3.30;99.10;;;;;;5021566;28;20460;-81
2021/11/11 00:59:14;;;;;;;0.90;0.82;;;3.30;99.10;;;;;;5022146;28;20190;-81
2021/11/11 01:01:40;;;;;;;6.90;3.30;;;3.30;99.10;;;;;;5021408;28;20194;-81
2021/11/11 01:04:07;;;;;;;1.10;1.00;;;3.30;99.10;;;;;;5020869;28;20453;-81
2021/11/11 01:06:33;;;;;;;2.90;2.70;;;3.30;99.10;;;;;;5021688;28;20262;-81
2021/11/11 01:08:58;;;;;;;2.35;1.52;;;3.30;99.10;;;;;;5022038;28;20218;-81
2021/11/11 01:11:26;;;;;;;4.30;1.83;;;3.30;99.10;;;;;;5021660;28;20175;-81
2021/11/11 01:13:52;;;;;;;17.27;3.28;;;3.20;99.10;;;;;;5021336;28;20787;-81
2021/11/11 01:16:18;;;;;;;3.65;2.17;;;3.30;99.10;;;;;;5021052;28;20190;-81
2021/11/11 01:18:45;;;;;;;2.30;2.10;;;3.30;99.10;;;;;;5021198;28;20195;-81
2021/11/11 01:21:12;;;;;;;3.70;1.85;;;3.30;99.10;;;;;;5021488;28;20171;-81
2021/11/11 01:23:39;;;;;;;4.65;4.35;;;3.20;99.10;;;;;;5020799;28;20195;-81
2021/11/11 01:26:05;;;;;;;5.97;2.05;;;3.20;99.10;;;;;;5020267;28;20175;-81
2021/11/11 01:28:31;;;;;;;5.43;2.13;;;3.20;99.10;;;;;;5020475;28;20186;-81
2021/11/11 01:30:57;;;;;;;4.55;2.22;;;3.20;99.10;;;;;;5020694;28;20528;-81
2021/11/11 01:33:23;;;;;;;5.60;1.30;;;3.20;99.10;;;;;;5019677;28;20553;-81
2021/11/11 01:35:49;;;;;;;5.13;1.85;;;3.20;99.10;;;;;;5020059;28;20274;-81
2021/11/11 01:38:16;;;;;;;1.03;0.80;;;3.10;99.10;;;;;;5020172;28;20369;-81
2021/11/11 01:40:44;;;;;;;13.80;2.85;;;3.10;99.10;;;;;;5020856;28;20414;-81
2021/11/11 01:43:10;;;;;;;5.60;1.35;;;3.10;99.10;;;;;;5020722;28;20252;-80
2021/11/11 01:45:39;;;;;;;4.18;3.28;;;3.10;99.10;;;;;;5020974;28;20206;-81
2021/11/11 01:48:07;;;;;;;2.05;1.95;;;3.10;99.10;;;;;;5019671;28;20274;-81
2021/11/11 01:50:34;;;;;;;11.68;3.25;;;3.10;99.10;;;;;;5020421;28;20184;-81
2021/11/11 01:53:01;;;;;;;15.38;3.72;;;3.10;99.10;;;;;;5019759;28;20184;-81
2021/11/11 01:55:28;;;;;;;2.17;1.77;;;3.10;99.10;;;;;;5020917;28;20631;-81
2021/11/11 01:57:54;;;;;;;1.58;1.48;;;3.10;99.10;;;;;;5020405;28;20237;-81
2021/11/11 02:00:40;;;;;;;14.35;3.58;;;3.10;99.10;;;;;;5021462;28;20175;-81
2021/11/11 02:03:07;;;;;;;14.90;1.90;;;3.00;99.10;;;;;;5035000;22;20200;-80
2021/11/11 02:05:34;;;;;;;1.67;1.58;;;3.00;99.10;;;;;;5017804;28;20626;-82
2021/11/11 02:08:00;;;;;;;1.25;1.05;;;3.00;99.10;;;;;;5017593;28;20537;-79
2021/11/11 02:10:28;;;;;;;5.15;3.88;;;3.00;99.10;;;;;;5018167;28;20178;-81
2021/11/11 02:12:54;;;;;;;6.38;1.25;;;3.00;99.10;;;;;;5017289;28;20178;-79
2021/11/11 02:15:21;;;;;;;6.20;2.10;;;3.00;99.10;;;;;;5017414;28;20186;-81
2021/11/11 02:17:48;;;;;;;1.27;1.23;;;3.00;99.10;;;;;;5017723;28;20210;-81
2021/11/11 02:20:15;;;;;;;2.38;2.17;;;3.00;99.10;;;;;;5017798;28;20175;-81
2021/11/11 02:22:42;;;;;;;5.25;2.53;;;2.90;99.10;;;;;;5017517;28;20220;-81
2021/11/11 02:25:13;;;;;;;2.55;2.35;;;3.00;99.10;;;;;;5018068;28;20166;-81
2021/11/11 02:27:39;;;;;;;6.25;2.65;;;3.00;99.10;;;;;;5017490;28;20662;-81
2021/11/11 02:30:07;;;;;;;1.77;1.67;;;3.00;99.10;;;;;;5018103;28;20313;-81
2021/11/11 02:32:34;;;;;;;1.80;1.70;;;3.00;99.10;;;;;;5017404;28;20421;-81
2021/11/11 02:35:00;;;;;;;3.83;0.80;;;2.90;99.10;;;;;;5016952;28;20170;-81
2021/11/11 02:37:30;;;;;;;14.07;2.28;;;2.90;99.10;;;;;;5017077;28;20202;-82
2021/11/11 02:39:57;;;;;;;1.45;1.35;;;2.90;99.10;;;;;;5017039;28;20171;-81
2021/11/11 02:42:25;;;;;;;5.68;2.90;;;2.90;99.10;;;;;;5017846;28;20222;-81
2021/11/11 02:44:54;;;;;;;3.63;1.67;;;2.90;99.10;;;;;;5016683;28;20627;-80
2021/11/11 02:47:19;;;;;;;2.50;2.30;;;2.80;99.10;;;;;;5016840;28;20181;-81
2021/11/11 02:49:45;;;;;;;1.70;1.60;;;2.80;99.10;;;;;;5017223;28;20170;-81
2021/11/11 02:52:11;;;;;;;3.00;2.80;;;2.80;99.10;;;;;;5017201;28;20413;-81
2021/11/11 02:54:39;;;;;;;1.27;1.17;;;2.70;99.10;;;;;;5017180;28;20421;-81
2021/11/11 02:57:39;;;;;;;7.57;2.60;;;2.60;99.10;;;;;;5016835;28;20414;-80
2021/11/11 03:00:21;;;;;;;9.15;3.63;;;2.60;99.10;;;;;;4985802;28;20657;-81
2021/11/11 03:02:49;;;;;;;1.95;1.85;;;2.60;99.10;;;;;;5017234;28;20202;-81
2021/11/11 03:05:18;;;;;;;5.45;2.25;;;2.50;99.10;;;;;;5016299;28;20638;-81
2021/11/11 03:07:44;;;;;;;8.18;2.40;;;2.50;99.10;;;;;;5017364;28;20186;-81
2021/11/11 03:10:15;;;;;;;8.63;1.73;;;2.40;99.10;;;;;;5017237;28;20221;-81
2021/11/11 03:12:41;;;;;;;17.45;1.80;;;2.40;99.10;;;;;;5017543;28;20181;-81
2021/11/11 03:15:08;;;;;;;2.88;2.67;;;2.30;99.10;;;;;;5017547;28;20214;-81
2021/11/11 03:17:34;;;;;;;2.78;1.70;;;2.30;99.10;;;;;;5017012;28;20284;-81
2021/11/11 03:20:00;;;;;;;2.10;1.95;;;2.20;99.10;;;;;;5017489;28;20218;-81
2021/11/11 03:22:26;;;;;;;8.85;1.98;;;2.20;99.10;;;;;;5016897;28;20355;-82
2021/11/11 03:24:53;;;;;;;2.30;2.10;;;2.20;99.10;;;;;;5016404;28;20261;-81
2021/11/11 03:27:20;;;;;;;6.55;2.08;;;2.20;99.10;;;;;;5016721;28;20482;-81
2021/11/11 03:29:49;;;;;;;1.30;1.25;;;2.20;99.10;;;;;;5016826;28;20253;-79
2021/11/11 03:32:15;;;;;;;5.07;4.55;;;2.20;99.10;;;;;;5016779;28;20758;-81
2021/11/11 03:34:42;;;;;;;3.67;2.00;;;2.20;99.10;;;;;;5016472;28;20213;-81
2021/11/11 03:37:11;;;;;;;8.07;4.47;;;2.00;99.10;;;;;;5016660;28;20170;-80
2021/11/11 03:39:37;;;;;;;3.78;1.38;;;2.00;99.10;;;;;;5017207;28;20174;-81
2021/11/11 03:42:03;;;;;;;3.57;2.30;;;2.00;99.10;;;;;;5016795;28;20209;-81
2021/11/11 03:44:29;;;;;;;4.72;3.50;;;2.00;99.10;;;;;;5016546;28;20483;-81
2021/11/11 03:46:57;;;;;;;2.93;1.47;;;2.00;99.10;;;;;;5016614;28;20171;-81
2021/11/11 03:49:23;;;;;;;3.17;2.97;;;2.00;99.10;;;;;;5017122;28;20453;-81
2021/11/11 03:51:49;;;;;;;3.08;2.05;;;2.10;99.10;;;;;;5016235;28;20174;-81
2021/11/11 03:54:19;;;;;;;18.15;2.90;;;2.10;99.10;;;;;;5016485;28;20179;-81
2021/11/11 03:56:47;;;;;;;4.30;1.95;;;2.10;99.10;;;;;;5021526;28;20178;-82
2021/11/11 03:59:13;;;;;;;1.85;1.75;;;2.20;99.10;;;;;;5021162;28;20309;-82
2021/11/11 04:01:39;;;;;;;3.30;1.87;;;2.20;99.10;;;;;;5020771;28;20194;-81
2021/11/11 04:04:05;;;;;;;8.10;3.30;;;2.20;99.10;;;;;;5021919;28;20567;-81
2021/11/11 04:06:32;;;;;;;5.82;3.08;;;2.20;99.10;;;;;;5020362;28;20437;-82
2021/11/11 04:08:59;;;;;;;2.25;1.40;;;2.20;99.10;;;;;;5020756;28;20194;-82
2021/11/11 04:11:26;;;;;;;1.98;1.52;;;2.20;99.10;;;;;;5020864;28;20175;-81
2021/11/11 04:13:53;;;;;;;9.85;3.10;;;2.20;99.10;;;;;;5020311;28;20241;-82
2021/11/11 04:16:19;;;;;;;4.68;1.83;;;2.10;99.10;;;;;;5020867;28;20174;-80
2021/11/11 04:18:44;;;;;;;1.13;1.03;;;2.10;99.10;;;;;;5020205;28;20198;-82
2021/11/11 04:21:10;;;;;;;1.95;1.70;;;2.10;99.10;;;;;;5019890;28;20424;-82
2021/11/11 04:23:36;;;;;;;6.63;2.30;;;2.00;99.10;;;;;;5020133;28;20435;-82
2021/11/11 04:26:12;;;;;;;2.75;2.55;;;2.00;99.10;;;;;;5020639;28;20487;-82
2021/11/11 04:31:34;;;;;;;1.73;1.63;;;2.00;99.10;;;;;;5021410;28;20155;-82
2021/11/11 04:34:06;;;;;;;3.70;3.08;;;2.00;99.10;;;;;;5020273;28;20682;-82
2021/11/11 04:44:48;;;;;;;2.10;1.50;;;1.90;99.10;;;;;;5022128;28;20211;-82
2021/11/11 05:00:56;;;;;;;17.58;3.13;;;1.70;99.10;;;;;;5021045;28;20182;-83
2021/11/11 05:03:23;;;;;;;1.90;1.77;;;1.70;99.10;;;;;;5020505;28;20237;-83
2021/11/11 05:05:50;;;;;;;1.38;0.98;;;1.60;99.10;;;;;;5019689;28;20171;-80
2021/11/11 05:08:15;;;;;;;3.83;3.63;;;1.60;99.10;;;;;;5018500;28;20281;-81
2021/11/11 05:10:42;;;;;;;1.83;1.63;;;1.70;99.10;;;;;;5019831;28;20198;-80
2021/11/11 05:13:07;;;;;;;10.77;4.10;;;1.70;99.10;;;;;;5019962;28;20426;-84
2021/11/11 05:15:34;;;;;;;2.17;2.00;;;1.70;99.10;;;;;;5020305;28;20170;-81
2021/11/11 05:18:00;;;;;;;3.50;2.58;;;1.80;99.10;;;;;;5020246;28;20404;-82
2021/11/11 05:20:26;;;;;;;5.93;2.83;;;1.80;99.10;;;;;;5020113;28;20707;-80
2021/11/11 05:22:52;;;;;;;9.33;1.30;;;1.80;99.10;;;;;;5019817;28;20226;-82
2021/11/11 05:25:18;;;;;;;3.47;3.28;;;1.80;99.10;;;;;;5020430;28;20410;-81
2021/11/11 05:27:44;;;;;;;1.80;1.70;;;1.80;99.10;;;;;;5020008;28;20201;-82
2021/11/11 05:30:12;;;;;;;4.55;1.20;;;1.70;99.10;;;;;;5019222;28;20452;-82
2021/11/11 05:32:38;;;;;;;3.65;1.83;;;1.70;99.10;;;;;;5020064;28;20175;-82
2021/11/11 05:35:07;;;;;;;1.75;1.30;;;1.70;99.10;;;;;;5019380;28;20179;-82
2021/11/11 05:37:34;;;;;;;1.00;0.95;;;1.80;99.10;;;;;;5019909;28;20194;-81
2021/11/11 05:40:00;;;;;;;1.48;1.38;;;1.80;99.10;;;;;;5019404;28;20208;-82
2021/11/11 05:42:26;;;;;;;5.57;5.07;;;1.80;99.10;;;;;;5020070;28;20266;-82
2021/11/11 05:44:52;;;;;;;1.73;0.93;;;1.90;99.10;;;;;;5020026;28;20479;-81
2021/11/11 05:47:18;;;;;;;4.90;2.87;;;1.90;99.10;;;;;;5019096;28;20610;-82
2021/11/11 05:49:44;;;;;;;2.15;1.23;;;2.00;99.10;;;;;;5019374;28;20414;-82
2021/11/11 05:52:10;;;;;;;9.75;2.08;;;2.00;99.10;;;;;;5019483;28;20229;-81
2021/11/11 05:54:38;;;;;;;2.08;1.70;;;2.00;99.10;;;;;;5019915;28;20214;-82
2021/11/11 05:57:05;;;;;;;2.95;1.92;;;2.00;99.10;;;;;;5019890;28;20229;-81
2021/11/11 05:59:31;;;;;;;2.67;1.73;;;2.00;99.10;;;;;;5019120;28;20201;-82
2021/11/11 06:01:57;;;;;;;4.75;1.23;;;2.00;99.10;;;;;;5019522;28;20198;-82
2021/11/11 06:04:23;;;;;;;1.80;1.63;;;2.10;99.10;;;;;;5019671;28;20205;-82
2021/11/11 06:06:49;;;;;;;1.35;1.25;;;2.00;99.10;;;;;;5019775;28;20925;-81
2021/11/11 06:09:15;;;;;;;9.53;2.20;;;2.00;99.10;;;;;;5019072;28;20198;-82
2021/11/11 06:11:40;;;;;;;6.13;2.13;;;1.90;99.10;;;;;;5019006;28;20761;-82
2021/11/11 06:14:06;;;;;;;1.20;1.10;;;1.90;99.10;;;;;;5018986;28;20419;-82
2021/11/11 06:16:32;;;;;;;1.60;1.07;;;1.90;99.10;;;;;;5018846;28;20410;-82
2021/11/11 06:18:58;;;;;;;3.38;2.88;;;1.90;99.10;;;;;;5017764;28;20438;-82
2021/11/11 06:21:25;;;;;;;1.80;1.50;;;1.90;99.10;;;;;;5020267;28;20193;-82
2021/11/11 06:23:52;;;;;;;2.20;1.48;;;1.90;99.10;;;;;;5019701;28;20453;-82
2021/11/11 06:26:20;;;;;;;3.45;1.77;;;2.00;99.10;;;;;;5019460;28;20242;-81
2021/11/11 06:28:46;;;;;;;3.67;2.55;;;2.00;99.10;;;;;;5019938;28;20277;-81
2021/11/11 06:31:12;;;;;;;1.95;1.27;;;2.10;99.10;;;;;;5019624;28;20174;-82
2021/11/11 06:33:38;;;;;;;1.45;1.35;;;2.10;99.10;;;;;;5020499;28;20202;-82
2021/11/11 06:36:04;;;;;;;3.60;2.63;;;2.10;99.10;;;;;;5019762;28;20266;-81
2021/11/11 06:38:30;;;;;;;4.87;3.07;;;2.10;99.10;;;;;;5018798;28;20962;-81
2021/11/11 06:41:03;;;;;;;2.47;1.95;;;2.10;99.10;;;;;;5117327;27;20540;-79
2021/11/11 06:43:29;;;;;;;2.10;1.95;;;2.00;99.10;;;;;;5117574;28;20171;-80
2021/11/11 06:45:55;;;;;;;7.00;2.05;;;2.10;99.10;;;;;;5116385;28;20175;-80
2021/11/11 06:48:21;;;;;;;3.72;2.35;;;2.10;99.10;;;;;;5116058;28;20197;-81
2021/11/11 06:50:47;;;;;;;2.73;1.63;;;2.00;99.10;;;;;;5115058;28;20170;-82
2021/11/11 06:53:15;;;;;;;2.90;2.35;;;2.10;99.10;;;;;;5114574;28;20220;-80
2021/11/11 06:55:42;;;;;;;3.70;1.30;;;2.20;99.10;;;;;;5114640;28;20173;-80
2021/11/11 06:58:09;;;;;;;3.63;2.13;;;2.10;99.10;;;;;;5115794;28;20202;-82
2021/11/11 07:00:36;;;;;;;3.53;1.00;;;2.10;99.10;;;;;;5115129;28;20260;-82
2021/11/11 07:03:01;;;;;;;1.77;1.67;;;2.10;99.10;;;;;;5114849;28;20177;-82
2021/11/11 07:05:27;;;;;;;2.40;2.20;;;2.10;99.10;;;;;;5114426;28;20171;-82
2021/11/11 07:07:53;;;;;;;3.23;1.67;;;2.20;99.10;;;;;;5114956;28;20429;-82
2021/11/11 07:10:19;;;;;;;15.43;3.80;;;2.20;99.10;;;;;;5115088;28;20409;-81
2021/11/11 07:12:45;;;;;;;2.13;1.33;;;2.30;99.10;;;;;;5114735;28;20459;-82
2021/11/11 07:15:13;;;;;;;1.05;1.00;;;2.40;99.10;;;;;;5115358;28;20466;-82
2021/11/11 07:17:39;;;;;;;2.70;2.15;;;2.40;99.10;;;;;;5113910;28;20187;-82
2021/11/11 07:20:09;;;;;;;2.17;1.20;;;2.30;99.10;;;;;;5115473;28;20206;-80
2021/11/11 07:22:34;;;;;;;0.65;0.55;;;2.30;99.10;;;;;;5116439;28;20172;-81
2021/11/11 07:25:00;;;;;;;2.93;2.73;;;2.30;99.10;;;;;;5114700;28;20224;-81
2021/11/11 07:27:26;;;;;;;4.53;1.13;;;2.30;99.10;;;;;;5113911;28;20441;-81
2021/11/11 07:29:52;;;;;;;3.80;1.90;;;2.40;99.10;;;;;;5114557;28;20175;-81
2021/11/11 07:32:17;;;;;;;1.77;1.67;;;2.40;99.10;;;;;;5114619;28;20449;-81
2021/11/11 07:34:43;;;;;;;2.90;1.70;;;2.50;99.10;;;;;;5114889;28;20168;-81
2021/11/11 07:37:10;;;;;;;3.00;1.80;;;2.50;99.10;;;;;;5114924;28;20405;-81
2021/11/11 07:39:36;;;;;;;4.20;1.42;;;2.50;99.10;;;;;;5115581;28;20529;-81
2021/11/11 07:42:03;;;;;;;2.15;1.98;;;2.60;99.10;;;;;;5115078;28;20187;-81
2021/11/11 07:44:28;;;;;;;6.47;3.17;;;2.70;99.10;;;;;;5114734;28;20174;-81
2021/11/11 07:46:54;;;;;;;3.87;1.30;;;2.80;99.10;;;;;;5114092;28;20171;-81
2021/11/11 07:49:20;;;;;;;4.13;1.80;;;3.00;99.10;;;;;;5114529;28;20429;-80
2021/11/11 07:51:46;;;;;;;5.88;1.45;;;3.00;99.10;;;;;;5105137;28;20986;-81
2021/11/11 07:54:13;;;;;;;4.13;2.15;;;3.10;99.10;;;;;;5100581;28;20172;-81
2021/11/11 07:56:39;;;;;;;2.25;2.13;;;3.20;99.10;;;;;;5099558;28;20183;-82
2021/11/11 07:59:06;;;;;;;6.40;2.37;;;3.30;99.10;;;;;;5099753;28;20204;-82
2021/11/11 08:01:32;;;;;;;6.30;1.40;;;3.40;99.10;;;;;;5099444;28;20402;-82
2021/11/11 08:03:59;;;;;;;7.05;3.65;;;3.50;99.10;;;;;;5098431;22;20224;-81
2021/11/11 08:06:25;;;;;;;3.17;2.42;;;3.50;99.10;;;;;;5060056;28;20626;-81
2021/11/11 08:08:51;;;;;;;1.83;1.60;;;3.60;99.10;;;;;;5059952;28;20216;-81
2021/11/11 08:11:18;;;;;;;4.75;3.00;;;3.70;99.10;;;;;;5068867;28;20177;-81
2021/11/11 08:13:44;;;;;;;2.20;1.70;;;3.70;99.10;;;;;;5059893;28;20199;-81
2021/11/11 08:16:10;;;;;;;5.28;2.55;;;3.80;99.10;;;;;;5058898;28;20233;-81
2021/11/11 08:18:36;;;;;;;4.67;2.70;;;3.80;99.10;;;;;;5058383;28;20223;-81
2021/11/11 08:21:02;;;;;;;7.97;3.57;;;3.80;99.10;;;;;;5058188;28;20538;-81
2021/11/11 08:23:28;;;;;;;3.60;2.30;;;3.90;99.10;;;;;;5057556;28;20911;-81
2021/11/11 08:25:56;;;;;;;4.63;2.57;;;4.00;99.10;;;;;;5059407;28;20179;-82
2021/11/11 08:28:22;;;;;;;4.45;2.85;;;4.00;99.10;;;;;;5068843;28;20238;-81
2021/11/11 08:30:49;;;;;;;1.47;1.37;;;4.00;99.10;;;;;;5058210;28;20177;-81
2021/11/11 08:33:15;;;;;;;11.40;3.17;;;4.00;99.10;;;;;;5058952;28;20418;-82
2021/11/11 08:35:46;;;;;;;3.53;2.13;;;4.10;99.10;;;;;;5059277;28;20240;-82
2021/11/11 08:38:12;;;;;;;1.80;1.70;;;4.20;99.10;;;;;;5059587;28;20527;-82
2021/11/11 08:40:38;;;;;;;2.28;2.08;;;4.20;99.10;;;;;;5058332;28;20264;-82
2021/11/11 08:43:04;;;;;;;10.77;2.75;;;4.20;99.10;;;;;;5058500;28;20629;-81
2021/11/11 08:45:32;;;;;;;1.95;1.70;;;4.20;99.10;;;;;;5058312;28;20180;-81
2021/11/11 08:48:00;;;;;;;1.52;1.50;;;4.20;99.10;;;;;;5059171;28;20261;-82
2021/11/11 08:50:30;;;;;;;3.00;1.80;;;4.20;99.10;;;;;;5058093;28;20641;-81
2021/11/11 08:52:58;;;;;;;14.80;3.08;;;4.30;99.10;;;;;;5058094;28;20558;-82
2021/11/11 08:55:26;;;;;;;8.25;3.10;;;4.30;99.10;;;;;;5057949;28;20222;-82
2021/11/11 08:57:52;;;;;;;5.00;3.22;;;4.40;99.10;;;;;;5057845;28;20205;-82
2021/11/11 09:00:23;;;;;;;5.97;2.40;;;4.50;99.10;;;;;;5057981;28;20200;-82
2021/11/11 09:02:52;;;;;;;3.55;2.85;;;4.40;99.10;;;;;;5066534;28;20161;-82
2021/11/11 09:05:19;;;;;;;3.35;1.75;;;4.50;99.10;;;;;;5057199;28;20216;-82
2021/11/11 09:07:45;;;;;;;3.60;2.17;;;4.50;99.10;;;;;;5056938;28;20222;-82
2021/11/11 09:10:13;;;;;;;8.93;3.03;;;4.60;99.10;;;;;;5057121;28;20169;-81
2021/11/11 09:12:47;;;;;;;6.22;1.90;;;4.70;99.10;;;;;;5057401;28;20173;-81
2021/11/11 09:15:15;;;;;;;12.07;2.88;;;4.70;98.90;;;;;;5057597;28;20671;-83
2021/11/11 09:17:43;;;;;;;1.80;1.70;;;4.80;98.80;;;;;;5056707;28;20189;-82
2021/11/11 09:20:11;;;;;;;11.57;3.33;;;4.90;98.80;;;;;;5057311;28;20569;-82
2021/11/11 09:22:37;;;;;;;6.60;3.63;;;4.90;98.80;;;;;;5057166;28;20161;-81
2021/11/11 09:25:07;;;;;;;4.85;3.70;;;5.00;98.30;;;;;;5057733;28;20172;-82
2021/11/11 09:27:34;;;;;;;8.27;2.55;;;5.00;98.50;;;;;;5058425;28;20197;-82
2021/11/11 09:30:00;;;;;;;3.50;1.98;;;5.00;98.70;;;;;;5057238;28;20173;-82
2021/11/11 09:32:26;;;;;;;8.87;5.20;;;5.10;98.40;;;;;;5057877;28;20528;-82
2021/11/11 09:34:52;;;;;;;5.87;3.47;;;5.10;98.20;;;;;;5057523;28;20415;-81
2021/11/11 09:37:17;;;;;;;2.87;1.70;;;5.10;98.70;;;;;;5057173;28;20231;-81
2021/11/11 09:39:43;;;;;;;8.23;3.70;;;5.20;98.90;;;;;;5057017;28;20818;-83
2021/11/11 09:42:09;;;;;;;9.33;3.63;;;5.30;98.40;;;;;;5057699;28;20419;-82
2021/11/11 09:44:36;;;;;;;5.18;3.20;;;5.40;98.40;;;;;;5057437;28;20260;-82
2021/11/11 09:47:03;;;;;;;9.10;2.45;;;5.50;98.50;;;;;;5057358;28;20165;-81
2021/11/11 09:49:30;;;;;;;10.52;4.78;;;5.60;98.30;;;;;;5057171;28;20188;-81
2021/11/11 09:51:56;;;;;;;6.57;3.65;;;5.70;97.70;;;;;;5057399;28;20181;-81
2021/11/11 09:59:41;;;;;;;4.70;2.47;;;5.90;97.40;;;;;;5059237;28;20200;-81
2021/11/11 10:02:08;;;;;;;7.43;4.50;;;6.00;97.00;;;;;;5055699;28;20369;-81
2021/11/11 10:04:35;;;;;;;6.68;3.75;;;6.00;97.00;;;;;;5056050;28;20189;-80
2021/11/11 10:07:01;;;;;;;2.75;2.55;;;6.00;96.80;;;;;;5055814;28;20169;-82
2021/11/11 10:09:28;;;;;;;10.48;4.38;;;6.00;96.90;;;;;;5055960;28;20481;-81
2021/11/11 10:11:56;;;;;;;9.85;5.70;;;6.10;97.10;;;;;;5056296;28;20169;-82
2021/11/11 10:14:23;;;;;;;9.18;4.10;;;6.20;97.00;;;;;;5055744;28;20173;-82
2021/11/11 10:16:53;;;;;;;1.63;1.25;;;6.30;97.00;;;;;;5057167;28;20173;-82
2021/11/11 10:19:19;;;;;;;5.25;3.80;;;6.40;96.60;;;;;;5056148;28;20205;-81
2021/11/11 10:21:54;;;;;;;4.63;3.40;;;6.40;96.80;;;;;;5055852;28;20548;-82
2021/11/11 10:24:29;;;;;;;9.10;3.88;;;6.50;96.30;;;;;;5056514;28;20164;-80
2021/11/11 10:27:04;;;;;;;6.45;3.97;;;6.50;96.20;;;;;;5056314;28;20192;-82
2021/11/11 10:29:42;;;;;;;4.15;2.80;;;6.60;96.20;;;;;;5056131;28;20207;-82
2021/11/11 10:32:08;;;;;;;10.40;3.75;;;6.60;96.30;;;;;;5056786;28;20177;-82
2021/11/11 10:34:55;;;;;;;6.67;3.07;;;6.70;96.10;;;;;;5056612;28;20176;-82
2021/11/11 10:37:24;;;;;;;4.22;2.67;;;6.70;95.90;;;;;;5056810;28;21014;-82
2021/11/11 10:40:03;;;;;;;4.90;3.67;;;6.70;96.00;;;;;;5056888;28;20197;-82
2021/11/11 10:42:30;;;;;;;6.05;3.63;;;6.70;96.00;;;;;;5057139;28;20201;-82
2021/11/11 10:45:03;;;;;;;8.82;2.92;;;6.80;95.90;;;;;;5057309;28;20173;-83
2021/11/11 10:47:31;;;;;;;3.22;3.08;;;6.90;95.10;;;;;;5057309;28;20724;-82
2021/11/11 10:50:01;;;;;;;2.42;2.22;;;6.90;95.00;;;;;;5055829;28;20330;-82
2021/11/11 10:52:34;;;;;;;1.65;1.40;;;7.00;95.40;;;;;;5056824;28;20180;-82
2021/11/11 10:55:19;;;;;;;2.78;1.50;;;7.10;94.80;;;;;;5055743;28;20205;-82
2021/11/11 10:57:56;;;;;;;12.25;5.25;;;7.10;94.80;;;;;;5062088;28;20279;-82
2021/11/11 11:00:28;;;;;;;4.00;3.80;;;7.20;94.80;;;;;;5063350;28;20192;-82
2021/11/11 11:02:58;;;;;;;8.10;3.38;;;7.20;94.70;;;;;;5058714;28;20233;-82
2021/11/11 11:05:28;;;;;;;5.63;3.53;;;7.30;94.60;;;;;;5055602;28;20672;-82
2021/11/11 11:08:01;;;;;;;4.80;2.80;;;7.40;94.30;;;;;;5056159;28;20594;-82
2021/11/11 11:10:28;;;;;;;8.18;3.08;;;7.50;94.00;;;;;;5055000;28;20169;-82
2021/11/11 11:12:56;;;;;;;3.13;1.98;;;7.60;94.10;;;;;;5055445;28;20215;-82
2021/11/11 11:15:44;;;;;;;4.50;2.22;;;7.70;94.30;;;;;;5055318;28;20196;-83
2021/11/11 11:18:12;;;;;;;7.03;3.80;;;7.80;94.00;;;;;;5055020;28;20228;-82
2021/11/11 11:20:38;;;;;;;11.90;4.68;;;7.90;93.30;;;;;;5054770;28;20250;-82
2021/11/11 11:23:20;;;;;;;6.60;4.03;;;7.90;92.60;;;;;;5054952;28;20219;-82
2021/11/11 11:26:11;;;;;;;6.47;3.03;;;8.00;92.10;;;;;;5055010;28;20169;-82
2021/11/11 11:28:43;;;;;;;2.85;2.65;;;8.00;92.00;;;;;;5058039;28;20703;-81
2021/11/11 11:31:10;;;;;;;3.72;1.63;;;8.00;92.30;;;;;;5058078;28;20196;-82
2021/11/11 11:33:44;;;;;;;4.65;3.13;;;8.00;92.20;;;;;;5058175;28;20177;-82
2021/11/11 11:36:14;;;;;;;6.82;4.35;;;8.10;92.10;;;;;;5057839;28;20513;-81
2021/11/11 11:38:52;;;;;;;4.68;4.03;;;8.10;92.10;;;;;;5058037;28;20192;-82
2021/11/11 11:41:26;;;;;;;11.48;4.30;;;8.20;92.00;;;;;;5057755;28;20179;-82
2021/11/11 11:43:53;;;;;;;3.50;2.88;;;8.30;91.60;;;;;;5058421;28;20178;-81
2021/11/11 11:46:24;;;;;;;5.32;3.38;;;8.30;91.80;;;;;;5057237;28;20260;-81
2021/11/11 11:48:51;;;;;;;3.42;3.22;;;8.30;91.40;;;;;;5057857;28;20197;-82
2021/11/11 11:51:20;;;;;;;8.98;5.70;;;8.40;91.50;;;;;;5058066;28;20173;-81
2021/11/11 11:53:53;;;;;;;4.85;3.25;;;8.40;91.30;;;;;;5057068;28;20200;-82
2021/11/11 11:56:28;;;;;;;9.95;4.10;;;8.50;91.60;;;;;;5058519;28;20165;-81
2021/11/11 11:59:04;;;;;;;5.97;2.83;;;8.60;91.00;;;;;;5058591;28;20200;-82
2021/11/11 12:04:48;;;;;;;4.70;3.15;;;8.70;90.50;;;;;;5054884;28;20204;-82
2021/11/11 12:07:28;;;;;;;10.50;3.70;;;8.60;90.50;;;;;;5058313;28;20173;-82
2021/11/11 12:15:24;;;;;;;10.57;5.00;;;8.60;90.70;;;;;;5063098;28;20169;-82
2021/11/11 12:40:30;;;;;;;9.25;3.33;;;8.50;91.50;;;;;;5058547;28;20758;-83
2021/11/11 12:43:00;;;;;;;7.30;3.30;;;8.40;92.10;;;;;;5057220;28;20169;-83
2021/11/11 12:45:34;;;;;;;6.60;3.70;;;8.30;92.40;;;;;;5057006;28;20176;-83
2021/11/11 12:48:16;;;;;;;3.88;3.22;;;8.30;92.30;;;;;;5059340;28;20200;-82
2021/11/11 12:50:49;;;;;;;3.70;2.47;;;8.20;92.60;;;;;;5058825;28;20169;-83
2021/11/11 12:53:16;;;;;;;7.35;2.85;;;8.20;93.10;;;;;;5061446;28;20185;-83
2021/11/11 12:55:45;;;;;;;3.28;3.08;;;8.30;92.80;;;;;;5058910;28;20192;-83
2021/11/11 12:58:16;;;;;;;5.18;3.00;;;8.30;92.90;;;;;;5058533;28;20220;-85
2021/11/11 13:00:46;;;;;;;7.47;3.60;;;8.40;92.50;;;;;;5059039;28;20613;-83
2021/11/11 13:03:13;;;;;;;9.55;4.32;;;8.50;92.50;;;;;;5059849;28;20272;-82
2021/11/11 13:05:59;;;;;;;5.05;3.05;;;8.50;92.30;;;;;;5061221;28;20196;-82
2021/11/11 13:08:50;;;;;;;6.30;4.55;;;8.50;92.50;;;;;;5056304;28;20185;-82
2021/11/11 13:11:31;;;;;;;3.05;2.65;;;8.60;92.00;;;;;;5055863;28;20191;-82
2021/11/11 13:14:17;;;;;;;3.88;2.78;;;8.50;92.10;;;;;;5056402;28;20165;-83
2021/11/11 13:17:05;;;;;;;7.20;3.13;;;8.60;92.10;;;;;;5057064;28;20169;-82
2021/11/11 13:19:35;;;;;;;5.47;3.75;;;8.60;92.10;;;;;;5055068;28;20213;-81
2021/11/11 13:22:13;;;;;;;8.90;3.95;;;8.50;92.00;;;;;;5054427;28;20173;-80
2021/11/11 16:03:59;;;;;;;6.72;4.43;;;5.50;99.10;;;;;;5083651;28;20667;-82
2021/11/11 16:22:34;;;;;;;3.55;3.10;;;5.40;99.10;;;;;;5082644;28;20215;-80
2021/11/11 16:27:29;;;;;;;2.78;2.15;;;5.40;99.10;;;;;;5082391;28;20729;-81
2021/11/11 16:30:10;;;;;;;7.65;3.40;;;5.50;99.10;;;;;;5064167;28;20176;-80
2021/11/11 16:32:37;;;;;;;4.85;2.58;;;5.40;99.10;;;;;;5064810;28;20225;-81
2021/11/11 16:35:06;;;;;;;7.47;2.72;;;5.40;99.10;;;;;;5063969;28;20173;-81
2021/11/11 16:37:33;;;;;;;17.55;4.60;;;5.50;99.10;;;;;;5064557;28;20660;-81
2021/11/11 16:39:59;;;;;;;10.90;3.42;;;5.50;99.10;;;;;;5064524;28;20200;-81
2021/11/11 16:42:24;;;;;;;10.37;3.83;;;5.50;99.10;;;;;;5064051;28;20191;-81
2021/11/11 16:44:50;;;;;;;24.87;5.03;;;5.50;99.10;;;;;;5063229;28;20273;-81
2021/11/11 16:47:16;;;;;;;12.07;4.93;;;5.40;99.10;;;;;;5063857;28;20177;-81
2021/11/11 16:49:42;;;;;;;6.60;3.87;;;5.30;99.10;;;;;;5063177;28;20433;-81
2021/11/11 16:52:08;;;;;;;2.90;2.70;;;5.30;99.10;;;;;;5062651;28;20439;-81
2021/11/11 16:54:33;;;;;;;4.37;3.97;;;5.30;99.10;;;;;;5061962;28;20411;-81
2021/11/11 16:56:59;;;;;;;9.43;3.30;;;5.30;99.10;;;;;;5062588;28;20426;-83
2021/11/11 16:59:25;;;;;;;7.82;3.83;;;5.30;99.10;;;;;;5062096;28;20486;-81